createdAt,value
2019-02-05T00:00:28.058Z,73.11
2019-02-05T00:01:28.033Z,73.07
2019-02-05T00:02:28.134Z,73.18
2019-02-05T00:03:28.141Z,73.35
2019-02-05T00:04:28.146Z,73.53
2019-02-05T00:05:27.898Z,73.61
2019-02-05T00:06:27.958Z,73.42
2019-02-05T00:07:27.992Z,73.62
2019-02-05T00:08:28.174Z,73.71
2019-02-05T00:09:27.991Z,73.5
2019-02-05T00:10:27.982Z,73.35
2019-02-05T00:11:27.897Z,73.47
2019-02-05T00:12:27.946Z,73.37
2019-02-05T00:13:27.941Z,73.49
2019-02-05T00:14:27.893Z,73.7
2019-02-05T00:15:27.893Z,73.65
2019-02-05T00:16:27.948Z,73.6
2019-02-05T00:17:27.931Z,73.66
2019-02-05T00:18:27.914Z,73.47
2019-02-05T00:19:27.904Z,73.61
2019-02-05T00:20:27.993Z,73.63
2019-02-05T00:21:27.936Z,73.46
2019-02-05T00:22:28.562Z,73.87
2019-02-05T00:23:28.173Z,73.93
2019-02-05T00:24:27.902Z,73.75
2019-02-05T00:25:27.929Z,73.64
2019-02-05T00:26:27.920Z,73.62
2019-02-05T00:27:28.055Z,73.65
2019-02-05T00:28:27.997Z,73.89
2019-02-05T00:29:28.118Z,73.82
2019-02-05T00:30:27.999Z,73.8
2019-02-05T00:31:28.023Z,73.67
2019-02-05T00:32:28.127Z,73.67
2019-02-05T00:33:28.144Z,73.91
2019-02-05T00:34:27.947Z,73.89
2019-02-05T00:35:27.818Z,73.98
2019-02-05T00:36:27.939Z,73.88
2019-02-05T00:37:28.366Z,74.19
2019-02-05T00:38:28.308Z,73.95
2019-02-05T00:39:28.572Z,74.09
2019-02-05T00:40:27.926Z,74.2
2019-02-05T00:41:29.649Z,74.09
2019-02-05T00:42:28.294Z,74.24
2019-02-05T00:43:27.901Z,74.21
2019-02-05T00:44:27.897Z,74.03
2019-02-05T00:45:27.785Z,73.93
2019-02-05T00:46:27.807Z,73.75
2019-02-05T00:47:27.797Z,73.75
2019-02-05T00:48:27.795Z,74.08
2019-02-05T00:49:28.136Z,74.16
2019-02-05T00:50:27.864Z,74.09
2019-02-05T00:51:28.174Z,73.94
2019-02-05T00:52:28.159Z,73.96
2019-02-05T00:53:29.291Z,74.06
2019-02-05T00:54:27.910Z,74.15
2019-02-05T00:55:27.822Z,74.13
2019-02-05T00:56:28.080Z,74.69
2019-02-05T00:57:27.902Z,74.6
2019-02-05T00:58:28.035Z,74.82
2019-02-05T00:59:27.895Z,74.6
2019-02-05T01:00:28.107Z,74.58
2019-02-05T01:01:28.231Z,74.78
2019-02-05T01:02:27.837Z,74.87
2019-02-05T01:03:29.617Z,74.99
2019-02-05T01:04:28.030Z,75.14
2019-02-05T01:05:28.037Z,74.97
2019-02-05T01:06:27.812Z,75.26
2019-02-05T01:07:28.051Z,75.08
2019-02-05T01:08:27.782Z,75.32
2019-02-05T01:09:27.770Z,75.07
2019-02-05T01:10:27.967Z,75.1
2019-02-05T01:11:27.974Z,75.16
2019-02-05T01:12:28.193Z,75.11
2019-02-05T01:13:28.708Z,75.11
2019-02-05T01:14:27.993Z,75.24
2019-02-05T01:15:28.013Z,75.22
2019-02-05T01:16:27.776Z,75.44
2019-02-05T01:17:27.813Z,75.56
2019-02-05T01:18:27.715Z,75.42
2019-02-05T01:19:27.900Z,75.3
2019-02-05T01:20:27.776Z,75.34
2019-02-05T01:21:28.041Z,75.13
2019-02-05T01:22:28.046Z,75.49
2019-02-05T01:23:27.771Z,75.51
2019-02-05T01:24:27.712Z,75.44
2019-02-05T01:25:27.954Z,75.52
2019-02-05T01:26:29.199Z,75.27
2019-02-05T01:27:28.183Z,75.09
2019-02-05T01:28:27.993Z,74.95
2019-02-05T01:29:29.115Z,75.26
2019-02-05T01:30:27.713Z,75.01
2019-02-05T01:31:28.208Z,75.28
2019-02-05T01:32:28.113Z,75.1
2019-02-05T01:33:27.706Z,75.44
2019-02-05T01:34:27.892Z,75.36
2019-02-05T01:35:27.879Z,75.5
2019-02-05T01:36:27.972Z,75.64
2019-02-05T01:37:27.700Z,75.73
2019-02-05T01:38:27.848Z,75.51
2019-02-05T01:39:27.878Z,75.46
2019-02-05T01:40:29.295Z,75.31
2019-02-05T01:41:27.909Z,75.37
2019-02-05T01:42:28.180Z,75.16
2019-02-05T01:43:28.086Z,75.68
2019-02-05T01:44:27.730Z,75.47
2019-02-05T01:45:27.706Z,75.41
2019-02-05T01:46:28.215Z,75.68
2019-02-05T01:47:27.796Z,75.7
2019-02-05T01:48:27.687Z,75.66
2019-02-05T01:49:28.227Z,75.75
2019-02-05T01:50:27.738Z,75.54
2019-02-05T01:51:27.933Z,75.57
2019-02-05T01:52:28.246Z,75.74
2019-02-05T01:53:27.719Z,76.15
2019-02-05T01:54:27.681Z,76.11
2019-02-05T01:55:27.671Z,75.95
2019-02-05T01:56:27.662Z,76.09
2019-02-05T01:57:27.718Z,76.11
2019-02-05T01:58:27.673Z,76.13
2019-02-05T01:59:27.671Z,76.14
2019-02-05T02:00:30.564Z,76.15
2019-02-05T02:01:27.652Z,76.34
2019-02-05T02:02:27.845Z,76.3
2019-02-05T02:03:27.883Z,76.52
2019-02-05T02:04:28.125Z,76.54
2019-02-05T02:05:27.678Z,76.56
2019-02-05T02:06:28.033Z,76.53
2019-02-05T02:07:27.933Z,76.61
2019-02-05T02:08:28.145Z,76.48
2019-02-05T02:09:27.709Z,76.99
2019-02-05T02:10:27.953Z,76.88
2019-02-05T02:11:27.861Z,76.84
2019-02-05T02:12:27.743Z,77.03
2019-02-05T02:13:27.913Z,77.12
2019-02-05T02:14:27.787Z,76.98
2019-02-05T02:15:27.914Z,77.12
2019-02-05T02:16:27.646Z,77.04
2019-02-05T02:17:27.743Z,77.06
2019-02-05T02:18:28.006Z,77.09
2019-02-05T02:19:27.991Z,77.13
2019-02-05T02:20:28.125Z,77.27
2019-02-05T02:21:27.869Z,77.32
2019-02-05T02:22:27.684Z,77.37
2019-02-05T02:23:27.712Z,77.47
2019-02-05T02:24:27.946Z,77.2
2019-02-05T02:25:28.073Z,77.52
2019-02-05T02:26:27.956Z,77.53
2019-02-05T02:27:27.731Z,77.96
2019-02-05T02:28:27.886Z,77.28
2019-02-05T02:29:27.874Z,77.24
2019-02-05T02:30:27.695Z,77.3
2019-02-05T02:31:27.748Z,77.4
2019-02-05T02:32:27.619Z,77.57
2019-02-05T02:33:27.683Z,77.33
2019-02-05T02:34:28.013Z,77.34
2019-02-05T02:35:28.039Z,77.5
2019-02-05T02:36:27.915Z,77.49
2019-02-05T02:37:28.028Z,77.45
2019-02-05T02:38:27.655Z,77.43
2019-02-05T02:39:28.349Z,77.52
2019-02-05T02:40:27.835Z,77.58
2019-02-05T02:41:27.670Z,77.53
2019-02-05T02:42:27.747Z,77.48
2019-02-05T02:43:27.624Z,77.6
2019-02-05T02:44:27.734Z,77.67
2019-02-05T02:45:27.998Z,77.68
2019-02-05T02:46:27.632Z,77.67
2019-02-05T02:47:27.924Z,77.68
2019-02-05T02:48:27.585Z,77.43
2019-02-05T02:49:27.590Z,77.72
2019-02-05T02:50:28.011Z,77.64
2019-02-05T02:51:28.022Z,77.75
2019-02-05T02:52:27.684Z,78.02
2019-02-05T02:53:28.238Z,77.62
2019-02-05T02:54:27.592Z,77.69
2019-02-05T02:55:27.649Z,77.9
2019-02-05T02:56:27.658Z,77.73
2019-02-05T02:57:28.674Z,77.52
2019-02-05T02:58:27.965Z,78.1
2019-02-05T02:59:28.177Z,78.08
2019-02-05T03:00:27.979Z,78.07
2019-02-05T03:01:27.619Z,78.01
2019-02-05T03:02:27.988Z,78.06
2019-02-05T03:03:27.566Z,78
2019-02-05T03:04:28.006Z,78.23
2019-02-05T03:05:28.213Z,78.52
2019-02-05T03:06:29.432Z,78.26
2019-02-05T03:07:27.595Z,78.28
2019-02-05T03:08:27.718Z,77.92
2019-02-05T03:09:27.937Z,77.91
2019-02-05T03:10:27.839Z,78.2
2019-02-05T03:11:27.558Z,78.86
2019-02-05T03:12:27.638Z,78.42
2019-02-05T03:13:27.695Z,78.54
2019-02-05T03:14:27.629Z,78.5
2019-02-05T03:15:27.766Z,78.75
2019-02-05T03:16:27.556Z,79.24
2019-02-05T03:17:27.549Z,79
2019-02-05T03:18:27.787Z,78.86
2019-02-05T03:19:27.570Z,79.09
2019-02-05T03:20:27.561Z,79.1
2019-02-05T03:21:27.564Z,78.9
2019-02-05T03:22:27.707Z,79.02
2019-02-05T03:23:27.822Z,79.14
2019-02-05T03:24:27.613Z,79.8
2019-02-05T03:25:27.607Z,79.82
2019-02-05T03:26:27.572Z,79.89
2019-02-05T03:27:27.545Z,79.2
2019-02-05T03:28:27.746Z,79.43
2019-02-05T03:29:27.646Z,79.47
2019-02-05T03:30:27.580Z,79.39
2019-02-05T03:31:27.774Z,79.41
2019-02-05T03:32:27.568Z,79.77
2019-02-05T03:33:27.583Z,79.29
2019-02-05T03:34:27.514Z,79.35
2019-02-05T03:35:27.518Z,79.35
2019-02-05T03:36:27.591Z,79.67
2019-02-05T03:37:27.532Z,79.6
2019-02-05T03:38:27.562Z,79.51
2019-02-05T03:39:27.516Z,79.36
2019-02-05T03:40:27.519Z,79.16
2019-02-05T03:41:28.042Z,79.68
2019-02-05T03:42:27.531Z,79.31
2019-02-05T03:43:27.619Z,79.79
2019-02-05T03:44:27.797Z,79.41
2019-02-05T03:45:28.183Z,79.8
2019-02-05T03:46:27.767Z,79.62
2019-02-05T03:47:27.587Z,80.06
2019-02-05T03:48:27.778Z,80.16
2019-02-05T03:49:27.517Z,80.65
2019-02-05T03:50:27.582Z,80.68
2019-02-05T03:51:28.186Z,80.61
2019-02-05T03:52:27.631Z,80.38
2019-02-05T03:53:27.816Z,80.3
2019-02-05T03:54:28.126Z,80.5
2019-02-05T03:55:27.828Z,80.67
2019-02-05T03:56:27.940Z,80.77
2019-02-05T03:57:30.694Z,80.38
2019-02-05T03:58:27.530Z,80.75
2019-02-05T03:59:27.492Z,80.9
2019-02-05T04:00:29.337Z,81.3
2019-02-05T04:01:27.647Z,81.06
2019-02-05T04:02:27.539Z,80.7
2019-02-05T04:03:27.776Z,80.76
2019-02-05T04:04:27.484Z,81.31
2019-02-05T04:05:28.303Z,81.59
2019-02-05T04:06:27.490Z,81.21
2019-02-05T04:07:27.703Z,80.97
2019-02-05T04:08:27.707Z,81.23
2019-02-05T04:09:27.741Z,81.15
2019-02-05T04:10:27.823Z,81.39
2019-02-05T04:11:27.451Z,81.35
2019-02-05T04:12:29.332Z,81.26
2019-02-05T04:13:28.150Z,81.24
2019-02-05T04:14:27.684Z,81.37
2019-02-05T04:15:27.658Z,81.51
2019-02-05T04:16:27.529Z,81.51
2019-02-05T04:17:27.497Z,81.09
2019-02-05T04:18:27.447Z,81.25
2019-02-05T04:19:27.461Z,81.84
2019-02-05T04:20:27.518Z,81.98
2019-02-05T04:21:27.723Z,81.6
2019-02-05T04:22:27.632Z,82.03
2019-02-05T04:23:27.642Z,81.53
2019-02-05T04:24:27.500Z,81.98
2019-02-05T04:25:27.485Z,82.1
2019-02-05T04:26:27.511Z,81.71
2019-02-05T04:27:27.481Z,81.73
2019-02-05T04:28:27.940Z,81.79
2019-02-05T04:29:27.450Z,81.82
2019-02-05T04:30:27.484Z,82
2019-02-05T04:31:27.446Z,81.74
2019-02-05T04:32:27.507Z,81.91
2019-02-05T04:33:27.615Z,82.04
2019-02-05T04:34:28.342Z,81.91
2019-02-05T04:35:27.514Z,82.09
2019-02-05T04:36:28.481Z,81.95
2019-02-05T04:37:28.438Z,82.57
2019-02-05T04:38:27.564Z,82.34
2019-02-05T04:39:27.487Z,82.29
2019-02-05T04:40:27.608Z,81.7
2019-02-05T04:41:27.626Z,81.85
2019-02-05T04:42:27.470Z,82.28
2019-02-05T04:43:27.732Z,82.17
2019-02-05T04:44:27.522Z,82.19
2019-02-05T04:45:33.898Z,81.96
2019-02-05T04:46:27.425Z,81.49
2019-02-05T04:47:27.506Z,81.92
2019-02-05T04:48:27.549Z,82.38
2019-02-05T04:49:27.689Z,81.96
2019-02-05T04:50:27.609Z,81.95
2019-02-05T04:51:27.582Z,82.14
2019-02-05T04:52:27.504Z,82.71
2019-02-05T04:53:27.437Z,82.08
2019-02-05T04:54:27.548Z,81.97
2019-02-05T04:55:27.542Z,82.14
2019-02-05T04:56:27.614Z,82.3
2019-02-05T04:57:27.618Z,82.64
2019-02-05T04:58:27.440Z,82.55
2019-02-05T04:59:27.389Z,82.06
2019-02-05T05:00:27.632Z,82.58
2019-02-05T05:01:27.651Z,82.18
2019-02-05T05:02:27.451Z,82.44
2019-02-05T05:03:27.464Z,82.03
2019-02-05T05:04:27.479Z,82.07
2019-02-05T05:05:27.416Z,82.28
2019-02-05T05:06:27.423Z,82.19
2019-02-05T05:07:27.394Z,82.08
2019-02-05T05:08:27.695Z,82.42
2019-02-05T05:09:27.400Z,82.55
2019-02-05T05:10:27.398Z,82.38
2019-02-05T05:11:27.393Z,83
2019-02-05T05:12:27.477Z,82.46
2019-02-05T05:13:27.493Z,82.6
2019-02-05T05:14:32.270Z,82.43
2019-02-05T05:15:27.635Z,82.42
2019-02-05T05:16:27.408Z,82.42
2019-02-05T05:17:27.424Z,82.14
2019-02-05T05:18:27.394Z,82.14
2019-02-05T05:19:27.376Z,82.75
2019-02-05T05:20:27.349Z,82.51
2019-02-05T05:21:27.364Z,82.52
2019-02-05T05:22:27.368Z,83.01
2019-02-05T05:23:27.484Z,82.54
2019-02-05T05:24:27.444Z,82.25
2019-02-05T05:25:27.509Z,82.67
2019-02-05T05:26:27.430Z,82.57
2019-02-05T05:27:27.208Z,82.93
2019-02-05T05:28:27.561Z,82.99
2019-02-05T05:29:27.730Z,83.13
2019-02-05T05:30:27.636Z,83.32
2019-02-05T05:31:27.657Z,82.94
2019-02-05T05:32:27.560Z,83.42
2019-02-05T05:33:27.858Z,83.69
2019-02-05T05:34:27.484Z,83.54
2019-02-05T05:35:39.094Z,83.39
2019-02-05T05:36:27.492Z,83.39
2019-02-05T05:37:27.435Z,83.51
2019-02-05T05:38:28.099Z,83.49
2019-02-05T05:39:27.590Z,83.5
2019-02-05T05:40:27.605Z,83.63
2019-02-05T05:41:28.421Z,83.42
2019-02-05T05:42:27.340Z,83.67
2019-02-05T05:43:27.387Z,83.42
2019-02-05T05:44:27.634Z,83.71
2019-02-05T05:45:27.345Z,83.56
2019-02-05T05:46:27.337Z,83.55
2019-02-05T05:47:27.557Z,83.55
2019-02-05T05:48:27.387Z,83.52
2019-02-05T05:49:28.067Z,83.44
2019-02-05T05:50:27.463Z,83.39
2019-02-05T05:51:27.792Z,83.69
2019-02-05T05:52:27.349Z,83.87
2019-02-05T05:53:27.442Z,84.13
2019-02-05T05:54:28.100Z,83.84
2019-02-05T05:55:27.337Z,83.56
2019-02-05T05:56:27.601Z,83.85
2019-02-05T05:57:27.439Z,84.06
2019-02-05T05:58:27.163Z,83.83
2019-02-05T05:59:27.622Z,83.54
2019-02-05T06:00:27.331Z,83.26
2019-02-05T06:01:27.299Z,83.38
2019-02-05T06:02:27.640Z,83.51
2019-02-05T06:03:28.276Z,83.72
2019-02-05T06:04:27.547Z,83.6
2019-02-05T06:05:27.472Z,83.57
2019-02-05T06:06:27.463Z,83.74
2019-02-05T06:07:27.419Z,83.6
2019-02-05T06:08:27.503Z,83.84
2019-02-05T06:09:27.322Z,83.7
2019-02-05T06:10:27.435Z,83.81
2019-02-05T06:11:27.349Z,83.72
2019-02-05T06:12:28.227Z,84.39
2019-02-05T06:13:27.550Z,84.13
2019-02-05T06:14:27.928Z,83.74
2019-02-05T06:15:27.448Z,83.93
2019-02-05T06:16:27.751Z,83.91
2019-02-05T06:17:27.536Z,84.08
2019-02-05T06:18:28.483Z,83.79
2019-02-05T06:19:27.330Z,83.84
2019-02-05T06:20:27.516Z,84.19
2019-02-05T06:21:27.768Z,83.93
2019-02-05T06:22:27.395Z,84.22
2019-02-05T06:23:27.573Z,83.88
2019-02-05T06:24:27.519Z,84.44
2019-02-05T06:25:27.324Z,84.11
2019-02-05T06:26:27.635Z,84.2
2019-02-05T06:27:27.285Z,84.08
2019-02-05T06:28:34.478Z,84.39
2019-02-05T06:29:28.082Z,84.54
2019-02-05T06:30:27.428Z,84.36
2019-02-05T06:31:27.343Z,84.75
2019-02-05T06:32:27.262Z,83.9
2019-02-05T06:33:27.334Z,83.9
2019-02-05T06:34:27.327Z,84.21
2019-02-05T06:35:27.245Z,83.33
2019-02-05T06:36:27.308Z,83.48
2019-02-05T06:37:27.423Z,83.56
2019-02-05T06:38:27.271Z,83.51
2019-02-05T06:39:27.450Z,83.92
2019-02-05T06:40:27.454Z,84.23
2019-02-05T06:41:27.409Z,83.62
2019-02-05T06:42:27.429Z,83.98
2019-02-05T06:43:27.243Z,84.13
2019-02-05T06:44:27.256Z,83.82
2019-02-05T06:45:27.324Z,83.2
2019-02-05T06:46:27.261Z,83.58
2019-02-05T06:47:27.282Z,83.78
2019-02-05T06:48:27.254Z,83.66
2019-02-05T06:49:27.275Z,83.53
2019-02-05T06:50:27.303Z,83.03
2019-02-05T06:51:27.304Z,83.32
2019-02-05T06:52:27.329Z,83.06
2019-02-05T06:53:27.246Z,83.08
2019-02-05T06:54:27.572Z,83.3
2019-02-05T06:55:27.270Z,83.16
2019-02-05T06:56:27.259Z,82.92
2019-02-05T06:57:27.245Z,83.22
2019-02-05T06:58:27.291Z,83.14
2019-02-05T06:59:27.326Z,83.12
2019-02-05T07:00:27.265Z,83.17
2019-02-05T07:01:27.237Z,83.37
2019-02-05T07:02:27.310Z,83.43
2019-02-05T07:03:27.413Z,84.02
2019-02-05T07:04:29.072Z,83.6
2019-02-05T07:05:27.336Z,83.4
2019-02-05T07:06:27.236Z,83.95
2019-02-05T07:07:27.227Z,84.2
2019-02-05T07:08:27.459Z,84.28
2019-02-05T07:09:27.470Z,84.08
2019-02-05T07:10:27.479Z,84.03
2019-02-05T07:11:27.479Z,83.88
2019-02-05T07:12:27.301Z,83.92
2019-02-05T07:13:27.595Z,83.78
2019-02-05T07:14:27.440Z,84.22
2019-02-05T07:15:27.304Z,84.11
2019-02-05T07:16:27.375Z,84.09
2019-02-05T07:17:27.213Z,83.91
2019-02-05T07:18:27.633Z,83.84
2019-02-05T07:19:27.429Z,83.89
2019-02-05T07:20:27.318Z,84.12
2019-02-05T07:21:27.269Z,84.1
2019-02-05T07:22:27.532Z,84.13
2019-02-05T07:23:27.417Z,84.26
2019-02-05T07:24:27.363Z,83.99
2019-02-05T07:25:27.320Z,83.94
2019-02-05T07:26:27.182Z,83.34
2019-02-05T07:27:27.326Z,83.36
2019-02-05T07:28:27.492Z,83.72
2019-02-05T07:29:27.180Z,83.57
2019-02-05T07:30:27.375Z,83.83
2019-02-05T07:31:27.431Z,83.94
2019-02-05T07:32:29.031Z,84.25
2019-02-05T07:33:27.320Z,84.24
2019-02-05T07:34:27.335Z,84.53
2019-02-05T07:35:27.159Z,84.71
2019-02-05T07:36:27.543Z,84.82
2019-02-05T07:37:27.233Z,84.83
2019-02-05T07:38:27.411Z,84.72
2019-02-05T07:39:27.710Z,84.62
2019-02-05T07:40:27.320Z,84.55
2019-02-05T07:41:27.253Z,84.71
2019-02-05T07:42:27.331Z,84.26
2019-02-05T07:43:27.385Z,84.25
2019-02-05T07:44:27.363Z,84.81
2019-02-05T07:45:27.512Z,84.71
2019-02-05T07:46:27.309Z,85.16
2019-02-05T07:47:27.355Z,84.36
2019-02-05T07:48:30.166Z,84.68
2019-02-05T07:49:27.220Z,84.52
2019-02-05T07:50:27.427Z,84.72
2019-02-05T07:51:27.284Z,84.66
2019-02-05T07:52:27.342Z,84.72
2019-02-05T07:53:27.246Z,84.66
2019-02-05T07:54:27.763Z,84.43
2019-02-05T07:55:27.344Z,84.17
2019-02-05T07:56:27.370Z,84.37
2019-02-05T07:57:27.114Z,84.49
2019-02-05T07:58:27.125Z,84.6
2019-02-05T07:59:27.387Z,84.48
2019-02-05T08:00:27.116Z,84.35
2019-02-05T08:01:27.405Z,84.44
2019-02-05T08:02:28.985Z,84.42
2019-02-05T08:03:27.360Z,84.64
2019-02-05T08:04:27.624Z,84.37
2019-02-05T08:05:27.319Z,84.59
2019-02-05T08:06:27.347Z,84.59
2019-02-05T08:07:27.188Z,84.59
2019-02-05T08:08:27.106Z,84.23
2019-02-05T08:09:27.316Z,83.79
2019-02-05T08:10:27.198Z,83.82
2019-02-05T08:11:27.113Z,84.2
2019-02-05T08:12:27.122Z,84.12
2019-02-05T08:13:27.169Z,84.13
2019-02-05T08:14:27.349Z,84.78
2019-02-05T08:15:27.111Z,84.23
2019-02-05T08:16:27.190Z,84.11
2019-02-05T08:17:27.260Z,84.47
2019-02-05T08:18:27.144Z,84.21
2019-02-05T08:19:27.085Z,83.92
2019-02-05T08:20:27.359Z,84.02
2019-02-05T08:21:28.954Z,83.98
2019-02-05T08:22:27.130Z,83.89
2019-02-05T08:23:27.079Z,84.1
2019-02-05T08:24:27.103Z,84
2019-02-05T08:25:27.202Z,84.07
2019-02-05T08:26:27.131Z,84.13
2019-02-05T08:27:27.223Z,84.34
2019-02-05T08:28:27.091Z,83.72
2019-02-05T08:29:27.065Z,84.35
2019-02-05T08:30:27.085Z,83.59
2019-02-05T08:31:27.199Z,84.01
2019-02-05T08:32:27.275Z,83.53
2019-02-05T08:33:27.077Z,83.14
2019-02-05T08:34:27.081Z,82.9
2019-02-05T08:35:27.088Z,82.84
2019-02-05T08:36:27.147Z,83.07
2019-02-05T08:37:27.324Z,83.08
2019-02-05T08:38:27.107Z,83.2
2019-02-05T08:39:27.134Z,82.61
2019-02-05T08:40:27.057Z,82.75
2019-02-05T08:41:27.106Z,82.86
2019-02-05T08:42:27.192Z,82.18
2019-02-05T08:43:27.058Z,82.19
2019-02-05T08:44:27.070Z,82.28
2019-02-05T08:45:27.053Z,82.08
2019-02-05T08:46:27.391Z,82.02
2019-02-05T08:47:27.077Z,81.68
2019-02-05T08:48:27.502Z,81.75
2019-02-05T08:49:27.078Z,82.27
2019-02-05T08:50:27.857Z,81.86
2019-02-05T08:51:27.092Z,82.02
2019-02-05T08:52:27.046Z,81.54
2019-02-05T08:53:27.328Z,81.56
2019-02-05T08:54:27.065Z,81.63
2019-02-05T08:55:27.184Z,81.35
2019-02-05T08:56:27.221Z,81.34
2019-02-05T08:57:27.041Z,81.26
2019-02-05T08:58:30.863Z,81.14
2019-02-05T08:59:28.012Z,81.08
2019-02-05T09:00:27.149Z,81.31
2019-02-05T09:01:27.387Z,81.37
2019-02-05T09:02:27.286Z,81.08
2019-02-05T09:03:27.149Z,81.04
2019-02-05T09:04:27.230Z,80.92
2019-02-05T09:05:27.203Z,80.37
2019-02-05T09:06:27.203Z,80.49
2019-02-05T09:07:27.540Z,80.42
2019-02-05T09:08:27.215Z,80.35
2019-02-05T09:09:28.879Z,80.33
2019-02-05T09:10:27.256Z,80.38
2019-02-05T09:11:27.077Z,80.35
2019-02-05T09:12:27.088Z,80.36
2019-02-05T09:13:27.020Z,80.06
2019-02-05T09:14:27.088Z,80.24
2019-02-05T09:15:29.238Z,79.93
2019-02-05T09:16:27.120Z,79.8
2019-02-05T09:17:27.058Z,79.44
2019-02-05T09:18:27.195Z,79.63
2019-02-05T09:19:27.402Z,79.74
2019-02-05T09:20:27.112Z,79.56
2019-02-05T09:21:27.321Z,79.24
2019-02-05T09:22:27.213Z,79.04
2019-02-05T09:23:27.272Z,78.89
2019-02-05T09:24:27.227Z,78.99
2019-02-05T09:25:27.040Z,79.58
2019-02-05T09:26:28.242Z,79.33
2019-02-05T09:27:27.032Z,79.15
2019-02-05T09:28:27.167Z,79.2
2019-02-05T09:29:33.309Z,79.22
2019-02-05T09:30:27.041Z,78.92
2019-02-05T09:31:26.995Z,79.07
2019-02-05T09:32:26.999Z,79.06
2019-02-05T09:33:27.035Z,78.83
2019-02-05T09:34:27.036Z,78.87
2019-02-05T09:35:27.059Z,78.47
2019-02-05T09:36:27.407Z,78.46
2019-02-05T09:37:27.526Z,78.37
2019-02-05T09:38:27.239Z,78.19
2019-02-05T09:39:26.954Z,78.07
2019-02-05T09:40:27.190Z,77.83
2019-02-05T09:41:27.545Z,77.9
2019-02-05T09:42:27.149Z,77.9
2019-02-05T09:43:27.252Z,77.97
2019-02-05T09:44:26.959Z,77.88
2019-02-05T09:45:26.988Z,77.85
2019-02-05T09:46:26.998Z,78.07
2019-02-05T09:47:27.103Z,77.98
2019-02-05T09:48:27.152Z,77.91
2019-02-05T09:49:27.214Z,77.72
2019-02-05T09:50:27.055Z,77.65
2019-02-05T09:51:27.302Z,77.58
2019-02-05T09:52:27.063Z,77.19
2019-02-05T09:53:27.221Z,77.19
2019-02-05T09:54:27.217Z,77.24
2019-02-05T09:55:27.227Z,77.4
2019-02-05T09:56:27.116Z,77.3
2019-02-05T09:57:27.058Z,77.22
2019-02-05T09:58:26.988Z,77.04
2019-02-05T09:59:27.099Z,76.87
2019-02-05T10:00:28.690Z,77.05
2019-02-05T10:01:27.985Z,76.97
2019-02-05T10:02:26.995Z,76.38
2019-02-05T10:03:26.967Z,76.56
2019-02-05T10:04:26.964Z,76.55
2019-02-05T10:05:26.950Z,77.08
2019-02-05T10:06:26.942Z,76.73
2019-02-05T10:07:26.959Z,76.45
2019-02-05T10:08:26.964Z,76.33
2019-02-05T10:09:27.014Z,76.27
2019-02-05T10:10:26.989Z,75.96
2019-02-05T10:11:26.954Z,76.05
2019-02-05T10:12:26.947Z,75.99
2019-02-05T10:13:26.958Z,75.91
2019-02-05T10:14:26.922Z,76.12
2019-02-05T10:15:27.057Z,76.05
2019-02-05T10:16:26.975Z,76.29
2019-02-05T10:17:26.982Z,75.78
2019-02-05T10:18:26.908Z,75.86
2019-02-05T10:19:26.955Z,75.58
2019-02-05T10:20:26.969Z,75.47
2019-02-05T10:21:27.044Z,75.78
2019-02-05T10:22:27.069Z,75.5
2019-02-05T10:23:26.983Z,75.93
2019-02-05T10:24:27.109Z,75.5
2019-02-05T10:25:26.931Z,75.71
2019-02-05T10:26:27.102Z,75.44
2019-02-05T10:27:26.926Z,75.32
2019-02-05T10:28:27.043Z,75.21
2019-02-05T10:29:26.886Z,74.77
2019-02-05T10:30:27.134Z,75.06
2019-02-05T10:31:26.944Z,74.85
2019-02-05T10:32:26.936Z,75.09
2019-02-05T10:33:26.943Z,74.55
2019-02-05T10:34:33.955Z,74.32
2019-02-05T10:35:27.080Z,74.7
2019-02-05T10:36:27.170Z,74.97
2019-02-05T10:37:26.983Z,74.89
2019-02-05T10:38:27.240Z,74.56
2019-02-05T10:39:27.020Z,74.45
2019-02-05T10:40:27.072Z,74.81
2019-02-05T10:41:27.131Z,74.5
2019-02-05T10:42:26.877Z,74.43
2019-02-05T10:43:27.133Z,73.95
2019-02-05T10:44:26.728Z,74.64
2019-02-05T10:45:27.546Z,74.02
2019-02-05T10:46:27.475Z,73.94
2019-02-05T10:47:28.593Z,73.75
2019-02-05T10:48:27.579Z,73.86
2019-02-05T10:49:26.895Z,73.97
2019-02-05T10:50:26.987Z,73.93
2019-02-05T10:51:28.731Z,73.12
2019-02-05T10:52:27.064Z,73.11
2019-02-05T10:53:27.304Z,73.31
2019-02-05T10:54:27.103Z,73.16
2019-02-05T10:55:26.893Z,73.16
2019-02-05T10:56:26.996Z,73
2019-02-05T10:57:27.639Z,73.01
2019-02-05T10:58:26.972Z,73.15
2019-02-05T10:59:26.857Z,73.04
2019-02-05T11:00:27.454Z,72.82
2019-02-05T11:01:26.987Z,72.69
2019-02-05T11:02:27.039Z,72.87
2019-02-05T11:03:28.092Z,72.53
2019-02-05T11:04:26.883Z,72.53
2019-02-05T11:05:26.833Z,72.02
2019-02-05T11:06:28.704Z,73.05
2019-02-05T11:07:27.083Z,71.83
2019-02-05T11:08:27.187Z,72.29
2019-02-05T11:09:27.207Z,72.22
2019-02-05T11:10:26.982Z,72.04
2019-02-05T11:11:27.316Z,72.6
2019-02-05T11:12:26.834Z,71.93
2019-02-05T11:13:26.955Z,71.62
2019-02-05T11:14:28.698Z,71.52
2019-02-05T11:15:27.249Z,71.46
2019-02-05T11:16:26.681Z,70.96
2019-02-05T11:17:27.049Z,71.54
2019-02-05T11:18:26.988Z,71.52
2019-02-05T11:19:26.825Z,71.1
2019-02-05T11:20:26.963Z,69.86
2019-02-05T11:21:27.329Z,70
2019-02-05T11:22:38.499Z,70.47
2019-02-05T11:23:27.199Z,71.04
2019-02-05T11:24:26.835Z,71.6
2019-02-05T11:25:27.102Z,70.69
2019-02-05T11:26:26.800Z,70.13
2019-02-05T11:27:27.404Z,70.1
2019-02-05T11:28:26.975Z,69.99
2019-02-05T11:29:27.229Z,68.73
2019-02-05T11:30:27.135Z,69.87
2019-02-05T11:31:26.961Z,69.62
2019-02-05T11:32:26.985Z,69.62
2019-02-05T11:33:26.906Z,69.42
2019-02-05T11:34:26.903Z,69.15
2019-02-05T11:35:28.666Z,68.49
2019-02-05T11:36:26.794Z,69.01
2019-02-05T11:37:26.969Z,69.21
2019-02-05T11:38:26.915Z,69.29
2019-02-05T11:39:26.871Z,68.88
2019-02-05T11:40:27.018Z,67.99
2019-02-05T11:41:26.949Z,68.23
2019-02-05T11:42:26.793Z,66.85
2019-02-05T11:43:26.915Z,66.27
2019-02-05T11:44:27.022Z,67.4
2019-02-05T11:45:27.134Z,67.72
2019-02-05T11:46:27.036Z,67.49
2019-02-05T11:47:26.804Z,67.58
2019-02-05T11:48:27.059Z,68.15
2019-02-05T11:49:26.793Z,68.25
2019-02-05T11:50:26.941Z,68.06
2019-02-05T11:51:27.074Z,67.57
2019-02-05T11:52:27.282Z,67.01
2019-02-05T11:53:27.596Z,68.11
2019-02-05T11:54:26.780Z,67.16
2019-02-05T11:55:27.098Z,67.33
2019-02-05T11:56:27.117Z,66.35
2019-02-05T11:57:27.113Z,65.02
2019-02-05T11:58:26.991Z,64.87
2019-02-05T11:59:27.230Z,66.49
2019-02-05T12:00:32.427Z,66.45
2019-02-05T12:01:38.043Z,65.71
2019-02-05T12:02:27.043Z,66.41
2019-02-05T12:03:27.255Z,66.19
2019-02-05T12:04:26.985Z,66.28
2019-02-05T12:05:27.371Z,66.34
2019-02-05T12:06:27.075Z,65.74
2019-02-05T12:07:27.078Z,66.05
2019-02-05T12:08:27.187Z,65.95
2019-02-05T12:09:27.369Z,65.7
2019-02-05T12:10:26.786Z,65.77
2019-02-05T12:11:27.310Z,65.18
2019-02-05T12:12:26.955Z,64.65
2019-02-05T12:13:26.905Z,63.33
2019-02-05T12:14:26.761Z,64.34
2019-02-05T12:15:27.319Z,64.49
2019-02-05T12:16:26.914Z,64.61
2019-02-05T12:17:27.404Z,65.57
2019-02-05T12:18:26.916Z,65.29
2019-02-05T12:19:26.871Z,65.19
2019-02-05T12:20:27.474Z,65.55
2019-02-05T12:21:26.742Z,64.33
2019-02-05T12:22:26.979Z,63.64
2019-02-05T12:23:26.898Z,63.96
2019-02-05T12:24:27.007Z,63.57
2019-02-05T12:25:26.780Z,63.68
2019-02-05T12:26:26.728Z,63.82
2019-02-05T12:27:26.754Z,64.01
2019-02-05T12:28:27.013Z,63.64
2019-02-05T12:29:26.775Z,64.31
2019-02-05T12:30:26.792Z,63.97
2019-02-05T12:31:27.032Z,64.18
2019-02-05T12:32:26.724Z,62.99
2019-02-05T12:33:27.607Z,63.26
2019-02-05T12:34:27.149Z,63
2019-02-05T12:35:27.480Z,62.88
2019-02-05T12:36:27.648Z,63.38
2019-02-05T12:37:26.794Z,63.59
2019-02-05T12:38:27.107Z,63.46
2019-02-05T12:39:26.982Z,63.17
2019-02-05T12:40:26.927Z,63.41
2019-02-05T12:41:27.124Z,62.61
2019-02-05T12:42:26.732Z,62.86
2019-02-05T12:43:27.007Z,62.89
2019-02-05T12:44:26.915Z,63.63
2019-02-05T12:45:28.554Z,61
2019-02-05T12:46:26.731Z,60
2019-02-05T12:47:26.803Z,61.23
2019-02-05T12:48:26.681Z,62.22
2019-02-05T12:49:26.828Z,62.85
2019-02-05T12:50:26.718Z,62.77
2019-02-05T12:51:26.964Z,62.95
2019-02-05T12:52:28.550Z,62.89
2019-02-05T12:53:26.973Z,62.69
2019-02-05T12:54:27.081Z,61.64
2019-02-05T12:55:26.838Z,61.26